EGKKLSZA

Guest
Details From EGKK - London Gatwick
To LSZA - Lugano
Flight Number -
Tags decoded
Created
Modified
Stats Distance 497 nm / 921 km
Max Altitude 0 ft / 0 m
Waypoints 5
Social Downloads 2
Likes 0
Share VATSIM

Download

Looking for another format? Having issues loading an existing format? Contact us
Advertisement - Login to hide

Notes

Requested: EGKK KOTUN IXORA ZA552 LSZA

Route

EGKK KOTUN IXORA ZA552 LSZA

ID Type Via Altitude Latitude Longitude Leg Dist Tot Dist Heading (true) Name
O EGKK APT - 0 ft / 0 m 51.14875˚ -0.19247˚ - 0 nm - London Gatwick
KOTUN FIX - 0 ft / 0 m 48.72444˚ 3.87111˚ 214 nm 214 nm 131° / 134° -
IXORA FIX - 0 ft / 0 m 45.83667˚ 8.58889˚ 258 nm 472 nm 130° / 134° -
ZA552 FIX - 0 ft / 0 m 45.77139˚ 8.79694˚ 9 nm 482 nm 114° / 114° -
O LSZA APT - 0 ft / 0 m 46.00427˚ 8.91058˚ 14 nm 497 nm 19° / 19° Lugano

Altitude Profile

Advertisement - Login to hide

Weather


0- 5 10 15 20 25 30 35+ Temperature / ° C

Clouds and Precipitation
Forecast for 2018-05-27 06:00 UTC. Updated 3 hours ago

Ground ~20,000 ft ~40,000 ft Winds

EGKK

Details ICAO EGKK (LGW)
Name London Gatwick
Region United Kingdom
Timezone Europe/London (UTC+1.0)
Stats Elevation 196 ft / 60 m (AMSL)
Location 51.148753° -0.192472°
Runways 2
Magnetic Variation 0.367° W

METAR

EGKK 270820Z 05004KT 010V100 9000 NSC 20/16 Q1015

Decode

TAF

TAF AMD EGKK 270736Z 2707/2812 06008KT 9999 FEW040 PROB40 TEMPO 2707/2711 4000 TSRA BKN014 BKN040CB TEMPO 2711/2722 4000 TSRA BKN014 BKN040CB PROB40 TEMPO 2714/2722 +TSGR BECMG 2800/2803 8000 PROB40 2802/2808 4000 BR BKN008 BECMG 2808/2811 9999

Decode

Departure Runways

ID Width Length Bearing (true) Bearing (mag) Surface Threshold Offset Overrun Length
08L 148 ft / 45 m 8,377 ft / 2,553 m 77.69° 78.06° Asphalt 1,053 ft / 321 m 0 ft / 0 m
08R 148 ft / 45 m 10,341 ft / 3,152 m 77.59° 77.96° Asphalt 1,289 ft / 393 m 0 ft / 0 m
26L 148 ft / 45 m 10,341 ft / 3,152 m 257.63° 258.00° Asphalt 879 ft / 268 m 600 ft / 183 m
26R 148 ft / 45 m 8,377 ft / 2,553 m 257.71° 258.08° Asphalt 1,365 ft / 416 m 0 ft / 0 m

LSZA

Details ICAO LSZA (LUG)
Name Lugano
Region Switzerland
Timezone Europe/Zurich (UTC+2.0)
Stats Elevation 915 ft / 279 m (AMSL)
Location 46.004275° 8.910579°
Runways 1
Magnetic Variation 2.476° E

METAR

LSZA 270820Z 18003KT 9999 FEW050 SCT130 21/14 Q1020 NOSIG

Decode

TAF

Not found

Destination Runways

ID Width Length Bearing (true) Bearing (mag) Surface Threshold Offset Overrun Length
01 98 ft / 30 m 4,430 ft / 1,350 m 18.79° 16.31° Asphalt 361 ft / 110 m 0 ft / 0 m
19 98 ft / 30 m 4,430 ft / 1,350 m 198.79° 196.31° Asphalt 673 ft / 205 m 0 ft / 0 m

Approach Navaids

Runway Type Ident Frequency Range Bearing (true) Bearing (mag) Slope Elevation
01 Localiser ILU 111.50 MHz 18 nm / 33 km 18.79° 16.31° - 928 ft / 283 m (AMSL)
01 Glidescope ILU 111.50 MHz 10 nm / 19 km 19.99° 17.51° 6.00° 928 ft / 283 m (AMSL)
01 DME ILU 111.50 MHz 18 nm / 33 km - - - 928 ft / 283 m (AMSL)

Popular Alternatives